Time;durP1;ratioP1;P1;durP2;ratioP2;P2;SDS_P1;SDS_P2;PMS_P1;PMS_P2;Temp;Humidity;BMP_temperature;BMP_pressure;BME280_temperature;BME280_humidity;BME280_pressure;Samples;Min_cycle;Max_cycle;Signal;HPM_P1;HPM_P2
2021/07/28 00:01:21;;;;;;;9.20;3.80;;;;;;;;;;10444521;27;20483;-60
2021/07/28 00:06:20;;;;;;;4.38;3.97;;;;;;;;;;10444735;27;20073;-60
2021/07/28 00:11:21;;;;;;;8.73;3.67;;;;;;;;;;10447029;27;20070;-60
2021/07/28 00:16:19;;;;;;;4.15;3.15;;;;;;;;;;10447050;27;20043;-60
2021/07/28 00:26:36;;;;;;;6.22;3.55;;;;;;;;;;10402826;27;20496;-61
2021/07/28 00:31:35;;;;;;;6.63;3.63;;;;;;;;;;10445822;27;20059;-59
2021/07/28 00:36:33;;;;;;;8.05;3.70;;;;;;;;;;10445937;27;20047;-60
2021/07/28 00:41:31;;;;;;;6.75;3.42;;;;;;;;;;10445751;27;20076;-59
2021/07/28 00:46:31;;;;;;;6.43;3.55;;;;;;;;;;10445924;27;20047;-60
2021/07/28 00:51:30;;;;;;;7.32;3.95;;;;;;;;;;10445246;27;20168;-59
2021/07/28 00:56:28;;;;;;;5.78;3.50;;;;;;;;;;10444811;27;20055;-60
2021/07/28 01:01:27;;;;;;;5.38;3.80;;;;;;;;;;10443787;27;20074;-59
2021/07/28 01:06:27;;;;;;;6.90;3.33;;;;;;;;;;10444879;27;20051;-59
2021/07/28 01:11:26;;;;;;;8.10;3.85;;;;;;;;;;10444981;27;20043;-59
2021/07/28 01:16:26;;;;;;;6.38;3.70;;;;;;;;;;10444453;27;20043;-60
2021/07/28 01:21:25;;;;;;;6.78;4.07;;;;;;;;;;10444117;27;20078;-59
2021/07/28 01:26:25;;;;;;;6.38;4.10;;;;;;;;;;10444515;27;20043;-60
2021/07/28 01:31:23;;;;;;;4.10;3.70;;;;;;;;;;10443607;27;20046;-59
2021/07/28 01:36:22;;;;;;;12.35;4.20;;;;;;;;;;10443648;27;20074;-60
2021/07/28 01:41:21;;;;;;;12.98;4.68;;;;;;;;;;10443386;27;20573;-60
2021/07/28 01:46:20;;;;;;;4.78;3.80;;;;;;;;;;10443516;27;20043;-60
2021/07/28 01:51:19;;;;;;;10.43;3.38;;;;;;;;;;10443128;27;20405;-59
2021/07/28 01:56:18;;;;;;;9.18;4.13;;;;;;;;;;10442370;27;20054;-58
2021/07/28 02:01:16;;;;;;;5.95;3.40;;;;;;;;;;10441943;27;20082;-59
2021/07/28 02:06:16;;;;;;;5.68;3.95;;;;;;;;;;10442187;27;20054;-59
2021/07/28 02:11:14;;;;;;;4.40;3.88;;;;;;;;;;10442310;27;20407;-58
2021/07/28 02:16:12;;;;;;;7.63;3.88;;;;;;;;;;10442518;27;20050;-59
2021/07/28 02:21:11;;;;;;;6.10;4.00;;;;;;;;;;10441723;27;20078;-59
2021/07/28 02:26:11;;;;;;;4.95;3.83;;;;;;;;;;10423310;27;20047;-59
2021/07/28 02:31:09;;;;;;;7.40;3.55;;;;;;;;;;10441563;27;20047;-59
2021/07/28 02:36:08;;;;;;;8.25;3.75;;;;;;;;;;10440837;27;20077;-59
2021/07/28 02:41:06;;;;;;;4.82;3.92;;;;;;;;;;10441432;27;20475;-59
2021/07/28 02:46:06;;;;;;;8.50;4.18;;;;;;;;;;10441082;27;20055;-59
2021/07/28 02:51:04;;;;;;;7.28;4.15;;;;;;;;;;10440743;27;20488;-59
2021/07/28 02:56:03;;;;;;;7.25;3.75;;;;;;;;;;10440888;27;20046;-59
2021/07/28 03:01:01;;;;;;;5.05;3.95;;;;;;;;;;10440500;27;20071;-59
2021/07/28 03:06:02;;;;;;;5.78;4.35;;;;;;;;;;10440536;27;20385;-59
2021/07/28 03:11:00;;;;;;;5.03;4.40;;;;;;;;;;10440512;27;20043;-59
2021/07/28 03:16:05;;;;;;;5.10;4.00;;;;;;;;;;10440057;27;20070;-59
2021/07/28 03:21:05;;;;;;;5.40;4.75;;;;;;;;;;10439776;27;20078;-59
2021/07/28 03:26:04;;;;;;;11.27;4.88;;;;;;;;;;10446558;27;20090;-58
2021/07/28 03:31:03;;;;;;;9.27;4.78;;;;;;;;;;10429627;27;20054;-59
2021/07/28 03:36:02;;;;;;;4.55;4.15;;;;;;;;;;10374680;28;20068;-59
2021/07/28 03:41:01;;;;;;;8.80;4.85;;;;;;;;;;10397478;28;20097;-59
2021/07/28 03:46:00;;;;;;;8.18;4.15;;;;;;;;;;10402210;28;20368;-59
2021/07/28 03:50:58;;;;;;;5.57;4.40;;;;;;;;;;10384178;28;20519;-59
2021/07/28 03:55:57;;;;;;;7.70;4.95;;;;;;;;;;10401577;28;20089;-59
2021/07/28 04:00:56;;;;;;;8.35;5.60;;;;;;;;;;10404445;28;20086;-60
2021/07/28 04:05:55;;;;;;;7.38;5.10;;;;;;;;;;10405796;28;20047;-60
2021/07/28 04:10:54;;;;;;;7.88;4.50;;;;;;;;;;10405622;28;20058;-59
2021/07/28 04:15:52;;;;;;;9.73;7.47;;;;;;;;;;10405144;28;20092;-59
2021/07/28 04:20:52;;;;;;;14.73;4.95;;;;;;;;;;10386992;28;20051;-59
2021/07/28 04:25:50;;;;;;;10.27;5.65;;;;;;;;;;10404666;28;20040;-60
2021/07/28 04:30:49;;;;;;;9.07;5.25;;;;;;;;;;10403645;28;20501;-59
2021/07/28 04:35:47;;;;;;;5.85;4.90;;;;;;;;;;10404802;28;20047;-59
2021/07/28 04:40:47;;;;;;;9.32;5.35;;;;;;;;;;10403706;28;20065;-59
2021/07/28 04:45:45;;;;;;;7.07;5.25;;;;;;;;;;10399079;28;20565;-59
2021/07/28 04:50:44;;;;;;;7.32;5.55;;;;;;;;;;10398861;28;20071;-58
2021/07/28 04:55:42;;;;;;;9.00;5.00;;;;;;;;;;10399202;28;20079;-59
2021/07/28 05:00:41;;;;;;;9.23;5.03;;;;;;;;;;10403238;28;20523;-59
2021/07/28 05:05:40;;;;;;;5.45;4.95;;;;;;;;;;10403361;28;20040;-59
2021/07/28 05:10:38;;;;;;;8.93;5.57;;;;;;;;;;10402714;28;20063;-59
2021/07/28 05:15:36;;;;;;;5.25;4.68;;;;;;;;;;10402838;28;20075;-59
2021/07/28 05:20:36;;;;;;;5.93;5.03;;;;;;;;;;10383784;28;20086;-59
2021/07/28 05:25:35;;;;;;;6.85;4.95;;;;;;;;;;10402212;28;20047;-60
2021/07/28 05:30:33;;;;;;;10.27;5.53;;;;;;;;;;10402371;28;20051;-59
2021/07/28 05:35:31;;;;;;;9.13;5.68;;;;;;;;;;10401482;28;20082;-59
2021/07/28 05:40:32;;;;;;;10.32;5.85;;;;;;;;;;10401074;28;20082;-59
2021/07/28 05:45:30;;;;;;;9.15;5.55;;;;;;;;;;10400537;28;20530;-59
2021/07/28 05:50:28;;;;;;;16.05;5.70;;;;;;;;;;10382883;28;20051;-59
2021/07/28 05:55:27;;;;;;;11.15;5.82;;;;;;;;;;10401690;28;20506;-58
2021/07/28 06:00:27;;;;;;;10.48;6.20;;;;;;;;;;10401411;28;20048;-59
2021/07/28 06:05:25;;;;;;;11.82;5.95;;;;;;;;;;10401377;28;20300;-58
2021/07/28 06:10:26;;;;;;;16.52;6.55;;;;;;;;;;10401204;28;20050;-60
2021/07/28 06:15:24;;;;;;;15.38;7.55;;;;;;;;;;10400773;28;20044;-59
2021/07/28 06:20:24;;;;;;;23.42;8.55;;;;;;;;;;10400548;28;20085;-59
2021/07/28 06:25:22;;;;;;;15.88;7.60;;;;;;;;;;10400515;28;20086;-60
2021/07/28 06:30:20;;;;;;;16.27;7.60;;;;;;;;;;10400395;28;20071;-59
2021/07/28 06:35:19;;;;;;;14.45;6.70;;;;;;;;;;10399785;28;20547;-59
2021/07/28 06:40:19;;;;;;;12.98;7.03;;;;;;;;;;10400627;28;20067;-59
2021/07/28 06:45:17;;;;;;;10.43;8.13;;;;;;;;;;10399399;28;20047;-58
2021/07/28 06:50:16;;;;;;;10.95;6.70;;;;;;;;;;10399600;28;20516;-59
2021/07/28 06:55:14;;;;;;;11.10;6.82;;;;;;;;;;10399377;28;20047;-60
2021/07/28 07:00:14;;;;;;;10.85;6.30;;;;;;;;;;10398343;28;20089;-59
2021/07/28 07:05:15;;;;;;;13.05;6.43;;;;;;;;;;10399504;28;20404;-59
2021/07/28 07:10:13;;;;;;;12.20;6.90;;;;;;;;;;10399094;28;20400;-59
2021/07/28 07:15:12;;;;;;;8.70;6.45;;;;;;;;;;10399842;28;20076;-62
2021/07/28 07:20:12;;;;;;;15.57;8.30;;;;;;;;;;10399840;28;20039;-59
2021/07/28 07:25:11;;;;;;;15.95;8.35;;;;;;;;;;10398341;28;20040;-59
2021/07/28 07:30:10;;;;;;;12.50;8.05;;;;;;;;;;10399444;28;20054;-59
2021/07/28 07:35:08;;;;;;;10.98;7.85;;;;;;;;;;10397925;28;20062;-59
2021/07/28 07:40:09;;;;;;;13.52;7.38;;;;;;;;;;10379982;28;20046;-59
2021/07/28 07:45:07;;;;;;;10.05;6.93;;;;;;;;;;10399293;28;20040;-59
2021/07/28 07:50:06;;;;;;;15.88;7.13;;;;;;;;;;10398462;28;20054;-60
2021/07/28 07:55:05;;;;;;;16.98;7.35;;;;;;;;;;10398945;28;20052;-59
2021/07/28 08:00:05;;;;;;;8.80;6.25;;;;;;;;;;10398232;28;20070;-59
2021/07/28 08:05:04;;;;;;;10.85;7.53;;;;;;;;;;10398233;28;20047;-59
2021/07/28 08:10:02;;;;;;;7.60;6.80;;;;;;;;;;10402822;28;20076;-59
2021/07/28 08:15:03;;;;;;;15.25;5.88;;;;;;;;;;10405503;28;20440;-59
2021/07/28 08:20:04;;;;;;;12.05;6.68;;;;;;;;;;10406104;28;20075;-59
2021/07/28 08:25:02;;;;;;;12.70;7.43;;;;;;;;;;10406169;28;20043;-60
2021/07/28 08:30:01;;;;;;;12.00;7.03;;;;;;;;;;10405827;28;20044;-59
2021/07/28 08:34:59;;;;;;;10.73;6.38;;;;;;;;;;10437148;27;20248;-59
2021/07/28 08:39:58;;;;;;;8.63;5.80;;;;;;;;;;10446310;27;20050;-59
2021/07/28 08:44:59;;;;;;;13.07;6.30;;;;;;;;;;10447156;27;20519;-59
2021/07/28 08:49:57;;;;;;;13.80;6.07;;;;;;;;;;10446825;27;20050;-59
2021/07/28 08:54:56;;;;;;;9.35;5.78;;;;;;;;;;10445489;27;20055;-59
2021/07/28 08:59:57;;;;;;;11.07;5.22;;;;;;;;;;10446280;27;20412;-59
2021/07/28 09:04:56;;;;;;;13.02;6.30;;;;;;;;;;10445584;27;20083;-59
2021/07/28 09:09:55;;;;;;;19.88;6.28;;;;;;;;;;10445718;27;20050;-59
2021/07/28 09:14:55;;;;;;;15.20;5.78;;;;;;;;;;10445307;27;20047;-58
2021/07/28 09:19:55;;;;;;;16.23;5.93;;;;;;;;;;10443745;27;20039;-58
2021/07/28 09:25:09;;;;;;;15.23;5.65;;;;;;;;;;10444767;27;20079;-58
2021/07/28 09:30:07;;;;;;;8.05;5.05;;;;;;;;;;10445518;27;20512;-59
2021/07/28 09:35:08;;;;;;;14.75;5.50;;;;;;;;;;10443379;27;20082;-59
2021/07/28 09:40:07;;;;;;;11.00;5.13;;;;;;;;;;10444739;27;20054;-59
2021/07/28 09:45:06;;;;;;;10.65;5.22;;;;;;;;;;10444330;27;20079;-58
2021/07/28 09:50:14;;;;;;;7.35;5.07;;;;;;;;;;10443952;27;20491;-59
2021/07/28 09:55:23;;;;;;;13.27;5.00;;;;;;;;;;10444180;27;20043;-58
2021/07/28 10:00:22;;;;;;;9.15;4.95;;;;;;;;;;10443922;27;20490;-58
2021/07/28 10:05:23;;;;;;;14.27;5.32;;;;;;;;;;10442992;27;20082;-59
2021/07/28 10:10:21;;;;;;;13.38;5.30;;;;;;;;;;10443726;27;20043;-58
2021/07/28 10:15:20;;;;;;;14.95;5.55;;;;;;;;;;10442641;27;20047;-59
2021/07/28 10:20:18;;;;;;;9.88;4.50;;;;;;;;;;10423281;27;20047;-59
2021/07/28 10:25:21;;;;;;;24.42;8.98;;;;;;;;;;10440810;27;20558;-59
2021/07/28 10:30:20;;;;;;;11.13;5.07;;;;;;;;;;10442282;27;20081;-59
2021/07/28 10:35:23;;;;;;;12.70;4.75;;;;;;;;;;10442213;27;20062;-59
2021/07/28 10:40:33;;;;;;;9.63;4.93;;;;;;;;;;10441872;27;20530;-59
2021/07/28 10:45:49;;;;;;;12.27;4.75;;;;;;;;;;10441007;27;20075;-59
2021/07/28 10:50:48;;;;;;;9.82;5.53;;;;;;;;;;10440855;27;20089;-58
2021/07/28 10:56:07;;;;;;;9.73;5.82;;;;;;;;;;10441259;27;20085;-59
2021/07/28 11:01:06;;;;;;;9.10;5.30;;;;;;;;;;10440186;27;20477;-59
2021/07/28 11:06:23;;;;;;;12.93;4.75;;;;;;;;;;10439760;27;20047;-59
2021/07/28 11:11:29;;;;;;;17.70;5.35;;;;;;;;;;10440201;27;20051;-59
2021/07/28 11:16:29;;;;;;;13.35;5.15;;;;;;;;;;10440813;27;20039;-59
2021/07/28 11:21:29;;;;;;;10.30;5.50;;;;;;;;;;10439966;28;20082;-59
2021/07/28 11:26:30;;;;;;;10.18;5.93;;;;;;;;;;10439971;28;20043;-59
2021/07/28 11:31:30;;;;;;;10.02;6.18;;;;;;;;;;10440289;28;20055;-59
2021/07/28 11:36:28;;;;;;;9.52;5.80;;;;;;;;;;10440197;28;20548;-59
2021/07/28 11:41:27;;;;;;;12.90;5.78;;;;;;;;;;10440178;28;20040;-59
2021/07/28 11:46:26;;;;;;;11.50;6.03;;;;;;;;;;10446406;27;20511;-59
2021/07/28 11:51:26;;;;;;;11.85;6.40;;;;;;;;;;10447133;27;20070;-60
2021/07/28 11:56:24;;;;;;;11.93;5.47;;;;;;;;;;10448225;27;20293;-60
2021/07/28 12:01:24;;;;;;;15.05;5.85;;;;;;;;;;10447750;27;20708;-60
2021/07/28 12:06:30;;;;;;;10.98;5.78;;;;;;;;;;10446942;27;20491;-60
2021/07/28 12:11:29;;;;;;;10.95;5.32;;;;;;;;;;10447481;27;20468;-60
2021/07/28 12:16:39;;;;;;;15.32;5.63;;;;;;;;;;10446807;27;20046;-60
2021/07/28 12:27:14;;;;;;;19.67;7.18;;;;;;;;;;10393355;27;20391;-60
2021/07/28 12:32:16;;;;;;;13.00;6.03;;;;;;;;;;10393358;28;20048;-60
2021/07/28 12:37:24;;;;;;;17.45;6.55;;;;;;;;;;10393109;28;20052;-60
2021/07/28 12:42:23;;;;;;;13.73;6.03;;;;;;;;;;10392807;28;20425;-60
2021/07/28 12:47:23;;;;;;;11.88;4.95;;;;;;;;;;10393053;28;20051;-60
2021/07/28 12:52:22;;;;;;;11.27;5.68;;;;;;;;;;10391613;28;20501;-60
2021/07/28 12:57:21;;;;;;;13.82;5.18;;;;;;;;;;10392601;28;20054;-60
2021/07/28 13:02:19;;;;;;;10.38;5.05;;;;;;;;;;10393016;28;20055;-60
2021/07/28 13:07:30;;;;;;;13.88;5.53;;;;;;;;;;10392358;28;20496;-60
2021/07/28 13:12:29;;;;;;;10.32;5.85;;;;;;;;;;10391788;28;20040;-60
2021/07/28 13:17:28;;;;;;;16.02;6.72;;;;;;;;;;10391484;28;20055;-60
2021/07/28 13:22:28;;;;;;;16.48;6.22;;;;;;;;;;10391115;28;20067;-61
2021/07/28 13:27:26;;;;;;;13.93;6.35;;;;;;;;;;10391167;28;20043;-60
2021/07/28 13:32:25;;;;;;;13.27;6.75;;;;;;;;;;10391589;28;20197;-60
2021/07/28 13:37:24;;;;;;;16.83;7.38;;;;;;;;;;10368532;28;20503;-60
2021/07/28 13:42:24;;;;;;;18.33;6.63;;;;;;;;;;10362950;28;20052;-60
2021/07/28 13:47:23;;;;;;;11.18;6.10;;;;;;;;;;10362935;28;20465;-60
2021/07/28 13:52:21;;;;;;;13.18;7.40;;;;;;;;;;10363187;28;20489;-60
2021/07/28 13:57:21;;;;;;;16.05;8.43;;;;;;;;;;10362465;28;20083;-61
2021/07/28 14:02:22;;;;;;;12.70;7.75;;;;;;;;;;10362682;28;20060;-60
2021/07/28 14:07:21;;;;;;;19.97;7.50;;;;;;;;;;10362097;28;20076;-60
2021/07/28 14:12:19;;;;;;;11.77;5.90;;;;;;;;;;10361938;28;20044;-61
2021/07/28 14:17:18;;;;;;;19.48;7.68;;;;;;;;;;10361501;28;20048;-60
2021/07/28 14:22:17;;;;;;;29.77;19.85;;;;;;;;;;10361597;28;20047;-60
2021/07/28 14:27:16;;;;;;;19.65;7.97;;;;;;;;;;10337213;28;20074;-59
2021/07/28 14:32:14;;;;;;;21.02;11.98;;;;;;;;;;10339657;28;20074;-60
2021/07/28 14:37:15;;;;;;;20.45;9.32;;;;;;;;;;10339884;28;20032;-60
2021/07/28 14:42:14;;;;;;;17.25;6.68;;;;;;;;;;10339025;28;20044;-63
2021/07/28 14:47:13;;;;;;;12.55;6.53;;;;;;;;;;10340727;28;20064;-60
2021/07/28 14:52:13;;;;;;;18.50;6.40;;;;;;;;;;10336647;28;20051;-60
2021/07/28 14:57:12;;;;;;;25.23;13.57;;;;;;;;;;10348959;28;20467;-60
2021/07/28 15:02:15;;;;;;;18.55;12.88;;;;;;;;;;10331729;28;20587;-61
2021/07/28 15:07:13;;;;;;;18.88;10.63;;;;;;;;;;10345712;28;20118;-60
2021/07/28 15:12:12;;;;;;;22.30;12.90;;;;;;;;;;10326296;28;20115;-59
2021/07/28 15:17:10;;;;;;;19.02;9.13;;;;;;;;;;10333331;28;20118;-60
2021/07/28 15:22:10;;;;;;;14.98;7.78;;;;;;;;;;10322232;28;20079;-59
2021/07/28 15:27:08;;;;;;;19.92;7.57;;;;;;;;;;10326244;28;20120;-60
2021/07/28 15:32:07;;;;;;;16.05;9.02;;;;;;;;;;10326380;28;20071;-59
2021/07/28 15:37:05;;;;;;;14.48;7.90;;;;;;;;;;10337527;28;20071;-59
2021/07/28 15:42:05;;;;;;;14.07;8.32;;;;;;;;;;10343662;28;20063;-59
2021/07/28 15:47:04;;;;;;;16.70;7.30;;;;;;;;;;10340579;28;20060;-60
2021/07/28 15:52:04;;;;;;;19.25;7.43;;;;;;;;;;10336835;28;20055;-60
2021/07/28 15:57:03;;;;;;;26.35;11.32;;;;;;;;;;10342509;28;20079;-60
2021/07/28 16:02:03;;;;;;;22.48;8.77;;;;;;;;;;10353512;28;20052;-60
2021/07/28 16:07:02;;;;;;;14.30;6.03;;;;;;;;;;10333398;28;20076;-60
2021/07/28 16:12:01;;;;;;;17.10;11.70;;;;;;;;;;10321508;28;20063;-60
2021/07/28 16:16:59;;;;;;;33.45;16.38;;;;;;;;;;10332264;28;20047;-61
2021/07/28 16:22:00;;;;;;;26.88;15.05;;;;;;;;;;10338881;28;20071;-59
2021/07/28 16:27:00;;;;;;;19.88;14.23;;;;;;;;;;10332960;28;20068;-59
2021/07/28 16:32:07;;;;;;;27.65;19.00;;;;;;;;;;10325496;28;20047;-60
2021/07/28 16:37:07;;;;;;;50.60;33.17;;;;;;;;;;10352485;28;20451;-60
2021/07/28 16:42:05;;;;;;;42.42;31.83;;;;;;;;;;10354783;28;20076;-60
2021/07/28 16:47:04;;;;;;;21.73;15.30;;;;;;;;;;10357649;28;20079;-61
2021/07/28 16:52:02;;;;;;;29.67;15.77;;;;;;;;;;10357475;28;20496;-61
2021/07/28 16:57:04;;;;;;;22.77;12.02;;;;;;;;;;10357445;28;20047;-60
2021/07/28 17:02:03;;;;;;;18.77;11.67;;;;;;;;;;10357363;28;20047;-60
2021/07/28 17:07:01;;;;;;;21.13;11.27;;;;;;;;;;10357490;28;20087;-60
2021/07/28 17:11:59;;;;;;;18.58;7.75;;;;;;;;;;10361964;28;20387;-60
2021/07/28 17:16:59;;;;;;;16.63;6.95;;;;;;;;;;10363945;28;20048;-60
2021/07/28 17:21:58;;;;;;;18.25;7.15;;;;;;;;;;10364415;28;20044;-60
2021/07/28 17:26:56;;;;;;;15.55;8.43;;;;;;;;;;10354551;28;20515;-62
2021/07/28 17:31:55;;;;;;;13.82;7.30;;;;;;;;;;10341237;28;20564;-60
2021/07/28 17:36:55;;;;;;;22.25;8.63;;;;;;;;;;10319535;28;20469;-60
2021/07/28 17:41:53;;;;;;;15.43;9.10;;;;;;;;;;10321884;28;20067;-60
2021/07/28 17:47:00;;;;;;;15.55;7.93;;;;;;;;;;10353322;28;20480;-60
2021/07/28 17:52:00;;;;;;;19.98;9.43;;;;;;;;;;10332212;28;20076;-60
2021/07/28 17:56:58;;;;;;;23.33;10.73;;;;;;;;;;10323261;28;20067;-60
2021/07/28 18:01:57;;;;;;;17.95;8.75;;;;;;;;;;10339780;28;20044;-61
2021/07/28 18:07:01;;;;;;;24.05;7.82;;;;;;;;;;10351004;28;20075;-60
2021/07/28 18:11:59;;;;;;;17.80;8.38;;;;;;;;;;10333380;28;20481;-60
2021/07/28 18:16:58;;;;;;;21.45;8.45;;;;;;;;;;10324218;28;20064;-61
2021/07/28 18:21:56;;;;;;;29.75;9.43;;;;;;;;;;10327297;28;20432;-60
2021/07/28 18:26:56;;;;;;;14.13;6.63;;;;;;;;;;10337433;28;20076;-59
2021/07/28 18:31:54;;;;;;;13.05;7.38;;;;;;;;;;10329750;28;20041;-60
2021/07/28 18:36:53;;;;;;;21.25;8.80;;;;;;;;;;10337113;28;20453;-61
2021/07/28 18:41:51;;;;;;;16.45;6.82;;;;;;;;;;10332947;28;20068;-57
2021/07/28 18:46:51;;;;;;;16.35;8.50;;;;;;;;;;10317437;28;20087;-58
2021/07/28 18:51:49;;;;;;;17.38;6.32;;;;;;;;;;10330258;28;20440;-58
2021/07/28 18:56:48;;;;;;;15.70;7.43;;;;;;;;;;10342533;28;20488;-59
2021/07/28 19:01:46;;;;;;;8.98;6.05;;;;;;;;;;10328774;28;20064;-59
2021/07/28 19:06:46;;;;;;;14.82;7.15;;;;;;;;;;10332280;28;20068;-59
2021/07/28 19:11:44;;;;;;;14.52;6.80;;;;;;;;;;10333110;28;20055;-59
2021/07/28 19:16:44;;;;;;;12.23;6.93;;;;;;;;;;10334255;28;20067;-58
2021/07/28 19:21:42;;;;;;;13.55;6.18;;;;;;;;;;10332208;28;20068;-59
2021/07/28 19:26:42;;;;;;;13.05;6.82;;;;;;;;;;10327872;28;20080;-58
2021/07/28 19:31:40;;;;;;;15.00;7.57;;;;;;;;;;10318029;28;20036;-59
2021/07/28 19:36:39;;;;;;;15.00;7.65;;;;;;;;;;10325486;28;20083;-59
2021/07/28 19:41:37;;;;;;;17.40;7.18;;;;;;;;;;10347195;28;20048;-59
2021/07/28 19:46:40;;;;;;;11.30;6.18;;;;;;;;;;10330751;28;20071;-58
2021/07/28 19:51:38;;;;;;;12.18;5.97;;;;;;;;;;10331134;28;20075;-58
2021/07/28 19:56:37;;;;;;;14.10;5.88;;;;;;;;;;10333673;28;20071;-56
2021/07/28 20:01:37;;;;;;;15.77;7.40;;;;;;;;;;10336370;28;20036;-59
2021/07/28 20:06:36;;;;;;;12.98;6.03;;;;;;;;;;10329954;28;20472;-60
2021/07/28 20:11:34;;;;;;;16.10;6.57;;;;;;;;;;10327902;28;20041;-59
2021/07/28 20:16:35;;;;;;;29.08;7.78;;;;;;;;;;10330336;28;20071;-59
2021/07/28 20:21:38;;;;;;;20.23;6.95;;;;;;;;;;10327886;28;20504;-59
2021/07/28 20:26:36;;;;;;;18.25;7.93;;;;;;;;;;10322291;28;20088;-61
2021/07/28 20:31:35;;;;;;;29.13;10.52;;;;;;;;;;10322659;28;20051;-58
2021/07/28 20:36:36;;;;;;;26.67;8.55;;;;;;;;;;10316440;28;20051;-59
2021/07/28 20:41:34;;;;;;;19.80;7.63;;;;;;;;;;10316398;28;20424;-59
2021/07/28 20:46:32;;;;;;;32.65;7.85;;;;;;;;;;10320559;28;20458;-59
2021/07/28 20:51:32;;;;;;;22.55;8.38;;;;;;;;;;10324737;28;20053;-59
2021/07/28 20:56:31;;;;;;;38.95;10.13;;;;;;;;;;10324095;28;20049;-59
2021/07/28 21:01:30;;;;;;;34.20;7.57;;;;;;;;;;10324007;28;20480;-59
2021/07/28 21:06:29;;;;;;;26.23;8.50;;;;;;;;;;10323637;28;20513;-59
2021/07/28 21:11:27;;;;;;;40.58;8.55;;;;;;;;;;10323576;28;20083;-59
2021/07/28 21:16:26;;;;;;;36.88;7.50;;;;;;;;;;10321540;28;20548;-59
2021/07/28 21:21:25;;;;;;;18.35;6.38;;;;;;;;;;10322784;28;20460;-59
2021/07/28 21:26:23;;;;;;;17.90;5.53;;;;;;;;;;10323174;28;20110;-59
2021/07/28 21:31:22;;;;;;;26.83;5.32;;;;;;;;;;10334751;28;20064;-59
2021/07/28 21:36:21;;;;;;;16.25;4.60;;;;;;;;;;10322325;28;20045;-59
2021/07/28 21:41:20;;;;;;;19.58;4.68;;;;;;;;;;10321527;28;20074;-58
2021/07/28 21:46:19;;;;;;;22.98;5.00;;;;;;;;;;10322008;28;20094;-59
2021/07/28 21:51:23;;;;;;;17.50;4.63;;;;;;;;;;10334968;28;20465;-59
2021/07/28 21:56:25;;;;;;;18.23;3.10;;;;;;;;;;10328842;28;20048;-59
2021/07/28 22:01:25;;;;;;;10.07;3.70;;;;;;;;;;10324354;28;20087;-59
2021/07/28 22:06:23;;;;;;;9.45;3.90;;;;;;;;;;10328775;28;20087;-59
2021/07/28 22:11:23;;;;;;;12.82;3.28;;;;;;;;;;10323363;28;20079;-59
2021/07/28 22:16:22;;;;;;;11.98;3.15;;;;;;;;;;10331608;28;20068;-59
2021/07/28 22:21:20;;;;;;;9.25;3.35;;;;;;;;;;10326807;28;20048;-59
2021/07/28 22:26:18;;;;;;;10.95;3.30;;;;;;;;;;10319442;28;20068;-59
2021/07/28 22:31:18;;;;;;;8.88;3.25;;;;;;;;;;10320067;28;20041;-60
2021/07/28 22:36:16;;;;;;;8.02;3.00;;;;;;;;;;10320227;28;20044;-60
2021/07/28 22:41:15;;;;;;;7.88;2.75;;;;;;;;;;10319135;28;20540;-59
2021/07/28 22:46:14;;;;;;;9.90;2.83;;;;;;;;;;10319868;28;20048;-58
2021/07/28 22:56:32;;;;;;;12.77;2.83;;;;;;;;;;10319532;28;20056;-58
2021/07/28 23:06:53;;;;;;;6.50;2.33;;;;;;;;;;10318334;28;20409;-60
2021/07/28 23:11:52;;;;;;;6.13;2.42;;;;;;;;;;10318993;28;20052;-60
2021/07/28 23:16:50;;;;;;;7.60;2.88;;;;;;;;;;10318780;28;20037;-60
2021/07/28 23:21:50;;;;;;;4.28;2.10;;;;;;;;;;10318612;28;20072;-59
2021/07/28 23:26:48;;;;;;;6.00;2.65;;;;;;;;;;10318795;28;20096;-60
2021/07/28 23:31:46;;;;;;;9.18;2.90;;;;;;;;;;10318251;28;20041;-60
2021/07/28 23:36:44;;;;;;;14.48;2.88;;;;;;;;;;10318097;28;20084;-59
2021/07/28 23:41:44;;;;;;;7.68;2.60;;;;;;;;;;10317815;28;20409;-60
2021/07/28 23:46:42;;;;;;;8.20;3.33;;;;;;;;;;10317551;28;20080;-60
2021/07/28 23:51:41;;;;;;;5.68;3.03;;;;;;;;;;10317624;28;20059;-60
2021/07/28 23:56:40;;;;;;;6.13;3.17;;;;;;;;;;10317534;28;20075;-60
